Time;durP1;ratioP1;P1;durP2;ratioP2;P2;SDS_P1;SDS_P2;PMS_P1;PMS_P2;Temp;Humidity;BMP_temperature;BMP_pressure;BME280_temperature;BME280_humidity;BME280_pressure;Samples;Min_cycle;Max_cycle;Signal;HPM_P1;HPM_P2
2021/06/08 00:01:23;;;;;;;33.95;15.48;;;;;;;20.73;83.54;99845.78;5012973;28;20068;-64
2021/06/08 00:03:48;;;;;;;25.45;15.18;;;;;;;20.71;83.60;99848.72;5022143;28;20037;-64
2021/06/08 00:06:14;;;;;;;23.52;15.95;;;;;;;20.77;83.77;99852.38;5019846;28;20084;-64
2021/06/08 00:08:39;;;;;;;23.55;14.05;;;;;;;20.77;83.69;99846.16;5018470;28;20044;-64
2021/06/08 00:11:05;;;;;;;25.20;13.93;;;;;;;20.68;83.92;99848.34;5016441;28;20312;-64
2021/06/08 00:13:30;;;;;;;28.88;14.20;;;;;;;20.73;83.67;99845.78;5007797;28;20034;-64
2021/06/08 00:15:56;;;;;;;24.58;14.70;;;;;;;20.54;83.76;99842.28;5018348;28;20034;-64
2021/06/08 00:18:21;;;;;;;24.85;14.73;;;;;;;20.53;83.73;99837.97;5004551;28;20080;-64
2021/06/08 00:20:47;;;;;;;22.13;14.18;;;;;;;20.51;83.65;99837.34;5018610;28;20048;-64
2021/06/08 00:23:13;;;;;;;25.52;14.68;;;;;;;20.55;83.64;99830.47;5010326;28;20053;-64
2021/06/08 00:25:38;;;;;;;25.80;14.05;;;;;;;20.52;83.92;99830.94;5015967;28;20028;-64
2021/06/08 00:28:05;;;;;;;22.08;12.43;;;;;;;20.60;83.08;99827.13;5021958;28;20041;-64
2021/06/08 00:30:31;;;;;;;25.27;13.48;;;;;;;20.56;82.91;99834.81;5018673;28;20072;-64
2021/06/08 00:32:57;;;;;;;23.27;12.75;;;;;;;20.60;82.55;99829.81;5008048;28;20046;-64
2021/06/08 00:35:22;;;;;;;17.05;11.43;;;;;;;20.61;82.33;99826.88;5011447;28;20034;-65
2021/06/08 00:37:48;;;;;;;23.55;12.68;;;;;;;20.62;82.18;99828.53;5003645;28;20034;-64
2021/06/08 00:40:14;;;;;;;27.90;12.70;;;;;;;20.66;81.69;99831.59;5003153;28;20233;-64
2021/06/08 00:42:39;;;;;;;26.35;13.68;;;;;;;20.46;81.55;99820.25;5001740;28;20034;-64
2021/06/08 00:45:06;;;;;;;28.38;13.02;;;;;;;20.50;82.06;99827.66;5007894;28;20231;-64
2021/06/08 00:47:32;;;;;;;23.02;13.27;;;;;;;20.33;82.61;99816.63;5013306;28;20292;-64
2021/06/08 00:49:57;;;;;;;30.73;12.95;;;;;;;20.26;82.73;99812.38;5021296;28;20044;-64
2021/06/08 00:52:23;;;;;;;28.52;13.48;;;;;;;20.32;82.62;99820.38;5013971;28;20030;-64
2021/06/08 00:54:48;;;;;;;21.65;11.90;;;;;;;20.37;81.04;99812.44;5015015;28;20033;-64
2021/06/08 00:57:14;;;;;;;25.80;12.48;;;;;;;20.29;80.95;99811.91;5007325;28;20088;-64
2021/06/08 00:59:40;;;;;;;25.30;11.90;;;;;;;20.21;81.51;99810.34;5004279;28;20084;-64
2021/06/08 01:02:05;;;;;;;23.83;12.05;;;;;;;20.14;81.86;99811.47;5019923;28;20041;-66
2021/06/08 01:04:31;;;;;;;28.33;12.38;;;;;;;20.05;81.69;99811.75;5016890;28;20105;-64
2021/06/08 01:06:56;;;;;;;23.00;12.05;;;;;;;20.07;81.55;99803.47;5015875;28;20407;-64
2021/06/08 01:09:22;;;;;;;25.25;12.48;;;;;;;19.99;81.89;99818.00;5004532;28;20036;-64
2021/06/08 01:11:47;;;;;;;34.75;12.65;;;;;;;19.89;82.00;99820.38;5015470;28;20034;-64
2021/06/08 01:14:13;;;;;;;30.08;12.70;;;;;;;19.62;83.43;99816.25;5022421;28;20036;-64
2021/06/08 01:16:39;;;;;;;29.60;12.60;;;;;;;19.62;83.44;99813.56;5022841;28;20188;-64
2021/06/08 01:19:05;;;;;;;27.80;12.40;;;;;;;19.61;83.04;99809.22;5021706;28;20099;-64
2021/06/08 01:21:31;;;;;;;28.08;12.43;;;;;;;19.58;82.96;99791.69;5022157;28;20097;-64
2021/06/08 01:23:58;;;;;;;23.27;12.65;;;;;;;19.76;82.05;99804.34;5003703;28;20343;-64
2021/06/08 01:26:25;;;;;;;22.63;11.77;;;;;;;19.90;81.80;99805.09;5006785;28;20034;-64
2021/06/08 01:28:51;;;;;;;27.52;13.05;;;;;;;19.90;82.26;99805.91;5013972;28;20100;-64
2021/06/08 01:31:21;;;;;;;161.15;148.13;;;;;;;19.97;81.46;99801.28;5009176;28;20026;-64
2021/06/08 01:33:47;;;;;;;28.70;12.77;;;;;;;20.01;81.48;99799.81;5003041;28;20031;-64
2021/06/08 01:36:15;;;;;;;27.10;11.88;;;;;;;20.06;81.02;99809.88;5009949;28;20018;-64
2021/06/08 01:38:43;;;;;;;25.15;10.95;;;;;;;20.07;80.71;99803.47;5011641;28;20033;-64
2021/06/08 01:41:11;;;;;;;23.20;11.70;;;;;;;20.15;79.98;99802.34;5014985;28;20076;-64
2021/06/08 01:43:39;;;;;;;30.90;11.70;;;;;;;20.06;80.10;99797.28;5021112;28;20061;-64
2021/06/08 01:46:04;;;;;;;22.23;11.88;;;;;;;20.17;79.56;99801.09;5019601;28;20061;-64
2021/06/08 01:48:29;;;;;;;21.63;12.15;;;;;;;20.12;79.73;99800.13;5011646;28;20034;-64
2021/06/08 01:51:03;;;;;;;23.25;11.48;;;;;;;20.09;79.63;99806.75;5010206;28;20052;-64
2021/06/08 01:53:42;;;;;;;24.83;12.40;;;;;;;20.13;79.74;99804.44;5011467;28;20330;-64
2021/06/08 01:56:12;;;;;;;31.95;12.75;;;;;;;20.04;80.03;99802.03;5010035;28;20042;-64
2021/06/08 01:58:45;;;;;;;24.70;12.38;;;;;;;20.03;79.82;99805.78;5004811;28;20046;-64
2021/06/08 02:01:37;;;;;;;24.70;13.75;;;;;;;19.96;79.72;99807.72;5004678;28;20038;-64
2021/06/08 02:04:10;;;;;;;19.80;12.77;;;;;;;19.88;80.28;99804.47;4988461;28;20038;-64
2021/06/08 02:06:48;;;;;;;29.93;11.63;;;;;;;19.90;80.22;99805.91;5007312;28;20292;-64
2021/06/08 02:09:30;;;;;;;17.15;10.82;;;;;;;19.91;80.02;99802.19;5012214;28;20591;-64
2021/06/08 02:12:16;;;;;;;20.85;11.07;;;;;;;19.93;79.33;99804.63;5020799;28;20026;-65
2021/06/08 02:14:54;;;;;;;22.50;10.45;;;;;;;19.96;78.43;99804.19;5011861;28;20053;-64
2021/06/08 02:17:24;;;;;;;19.10;10.10;;;;;;;19.88;78.81;99810.69;5010924;28;20021;-64
2021/06/08 02:19:52;;;;;;;23.95;10.45;;;;;;;19.88;79.26;99810.69;5006068;28;20042;-64
2021/06/08 02:22:22;;;;;;;22.75;11.13;;;;;;;19.86;79.38;99810.06;5011190;28;20030;-64
2021/06/08 02:24:48;;;;;;;17.92;10.00;;;;;;;19.90;79.36;99813.16;5014271;28;20042;-64
2021/06/08 02:27:15;;;;;;;28.85;12.48;;;;;;;19.82;79.47;99792.75;5013806;28;20069;-64
2021/06/08 02:29:45;;;;;;;19.60;10.85;;;;;;;19.75;80.08;99808.09;5011227;28;20030;-64
2021/06/08 02:32:11;;;;;;;17.17;9.93;;;;;;;19.76;79.54;99802.47;5014987;28;20312;-64
2021/06/08 02:34:38;;;;;;;18.85;9.60;;;;;;;19.75;79.12;99803.53;4994629;28;20049;-65
2021/06/08 02:37:05;;;;;;;27.70;10.95;;;;;;;19.73;78.67;99804.78;5011422;28;20086;-64
2021/06/08 02:39:32;;;;;;;23.73;10.18;;;;;;;19.69;78.52;99808.97;5015220;28;20037;-64
2021/06/08 02:41:58;;;;;;;26.83;10.85;;;;;;;19.59;78.47;99809.44;5016030;28;20344;-64
2021/06/08 02:44:25;;;;;;;23.58;10.65;;;;;;;19.44;78.82;99798.19;5013248;28;20030;-64
2021/06/08 02:46:52;;;;;;;21.05;10.57;;;;;;;19.48;79.26;99803.94;5011662;28;20379;-64
2021/06/08 02:49:20;;;;;;;19.38;10.38;;;;;;;19.45;78.83;99807.88;5009621;28;20068;-65
2021/06/08 02:51:46;;;;;;;22.00;10.27;;;;;;;19.41;78.95;99804.81;5012093;28;20034;-64
2021/06/08 02:54:13;;;;;;;18.48;9.68;;;;;;;19.50;78.58;99810.72;5006835;28;20220;-64
2021/06/08 02:56:39;;;;;;;17.85;9.95;;;;;;;19.56;78.35;99804.50;5004321;28;20054;-64
2021/06/08 02:59:06;;;;;;;21.23;8.85;;;;;;;19.62;77.80;99817.06;5012412;28;20136;-64
2021/06/08 03:01:34;;;;;;;20.52;10.05;;;;;;;19.56;77.73;99817.13;5010432;28;20027;-64
2021/06/08 03:04:01;;;;;;;21.33;9.23;;;;;;;19.58;77.31;99815.88;5017408;28;20042;-64
2021/06/08 03:06:33;;;;;;;22.70;9.07;;;;;;;19.63;77.24;99823.28;5012856;28;20038;-64
2021/06/08 03:09:06;;;;;;;15.43;8.98;;;;;;;19.52;77.61;99826.63;5013939;28;20105;-64
2021/06/08 03:11:41;;;;;;;15.70;9.30;;;;;;;19.41;77.45;99825.47;5013189;28;20037;-64
2021/06/08 03:14:10;;;;;;;20.90;9.45;;;;;;;19.39;77.08;99817.63;5005939;28;20220;-64
2021/06/08 03:16:50;;;;;;;16.95;8.50;;;;;;;19.40;77.16;99818.44;5008665;28;20113;-64
2021/06/08 03:19:19;;;;;;;15.55;8.70;;;;;;;19.49;76.54;99819.00;5015925;28;20046;-64
2021/06/08 03:21:49;;;;;;;14.88;9.45;;;;;;;19.44;76.49;99819.66;5009609;28;20030;-64
2021/06/08 03:24:17;;;;;;;16.20;9.30;;;;;;;19.27;77.37;99815.84;5014166;28;20044;-64
2021/06/08 03:26:45;;;;;;;17.80;9.77;;;;;;;19.22;77.92;99819.19;5018766;28;20033;-64
2021/06/08 03:29:14;;;;;;;14.80;9.27;;;;;;;19.18;77.90;99822.53;5012782;28;20145;-64
2021/06/08 03:31:43;;;;;;;20.05;9.43;;;;;;;19.10;78.85;99813.69;5008909;28;20045;-64
2021/06/08 03:34:15;;;;;;;20.70;9.40;;;;;;;19.11;78.47;99820.69;5008907;28;20386;-64
2021/06/08 03:36:43;;;;;;;18.38;9.52;;;;;;;19.13;78.63;99818.63;4991004;28;20058;-64
2021/06/08 03:39:09;;;;;;;19.33;9.00;;;;;;;19.24;78.36;99824.34;5016972;28;20220;-64
2021/06/08 03:41:35;;;;;;;22.25;9.20;;;;;;;19.31;77.80;99823.25;5003226;28;20030;-64
2021/06/08 03:44:01;;;;;;;19.42;9.20;;;;;;;19.42;77.13;99825.25;5002877;28;20121;-64
2021/06/08 03:46:27;;;;;;;19.02;8.90;;;;;;;19.43;77.29;99828.75;5013510;28;20097;-64
2021/06/08 03:48:57;;;;;;;20.08;9.73;;;;;;;19.64;76.91;99831.09;5023468;28;20065;-64
2021/06/08 03:51:29;;;;;;;13.23;9.27;;;;;;;19.58;76.66;99833.84;5014323;28;20027;-64
2021/06/08 03:53:55;;;;;;;16.60;8.88;;;;;;;19.67;76.70;99830.66;5009267;28;20034;-64
2021/06/08 03:56:21;;;;;;;15.80;9.45;;;;;;;19.55;76.93;99824.34;5018376;28;20030;-64
2021/06/08 03:58:47;;;;;;;16.63;9.70;;;;;;;19.34;78.01;99828.19;5008737;28;20052;-64
2021/06/08 04:01:13;;;;;;;17.85;9.73;;;;;;;19.40;78.09;99829.19;5009417;28;20029;-64
2021/06/08 04:03:39;;;;;;;20.60;10.75;;;;;;;19.57;77.16;99832.19;5021409;28;20042;-64
2021/06/08 04:06:05;;;;;;;15.15;10.25;;;;;;;19.57;77.78;99841.06;5022396;28;20029;-64
2021/06/08 04:08:31;;;;;;;22.45;9.98;;;;;;;19.52;78.35;99837.38;5013065;28;20271;-64
2021/06/08 04:10:56;;;;;;;16.45;10.45;;;;;;;19.70;77.84;99837.47;5005161;28;20032;-64
2021/06/08 04:13:23;;;;;;;19.45;9.95;;;;;;;19.71;77.96;99842.63;5015411;28;20041;-64
2021/06/08 04:15:50;;;;;;;19.02;10.70;;;;;;;19.88;76.52;99812.53;5003657;28;20026;-64
2021/06/08 04:18:16;;;;;;;19.80;10.15;;;;;;;20.36;75.47;99843.06;5002426;28;20038;-64
2021/06/08 04:20:42;;;;;;;23.33;9.98;;;;;;;20.53;74.82;99843.34;5007995;28;20093;-64
2021/06/08 04:23:08;;;;;;;17.67;10.40;;;;;;;20.75;74.47;99846.38;5007847;28;20041;-64
2021/06/08 04:25:34;;;;;;;20.17;13.15;;;;;;;20.93;74.34;99849.09;5016582;28;21214;-64
2021/06/08 04:27:59;;;;;;;23.88;16.27;;;;;;;21.15;73.36;99852.09;5013948;28;20037;-64
2021/06/08 04:30:25;;;;;;;19.25;10.85;;;;;;;21.23;72.71;99846.44;5008240;28;20379;-64
2021/06/08 04:32:51;;;;;;;20.42;11.30;;;;;;;21.52;71.73;99852.84;5012371;28;20037;-64
2021/06/08 04:35:18;;;;;;;29.40;23.85;;;;;;;21.74;70.80;99853.13;5006797;28;20014;-64
2021/06/08 04:37:44;;;;;;;19.02;10.98;;;;;;;21.83;70.74;99851.72;5008522;28;20224;-64
2021/06/08 04:40:13;;;;;;;22.80;11.18;;;;;;;22.06;69.49;99850.16;5007032;28;20045;-64
2021/06/08 04:42:46;;;;;;;22.85;13.02;;;;;;;22.26;68.26;99861.41;5010751;28;20034;-64
2021/06/08 04:45:12;;;;;;;21.67;11.52;;;;;;;22.02;69.50;99848.94;5013829;28;20193;-64
2021/06/08 04:47:38;;;;;;;20.40;11.32;;;;;;;22.36;68.47;99858.13;5021758;28;20041;-64
2021/06/08 04:50:06;;;;;;;19.00;10.75;;;;;;;22.62;67.61;99866.53;5019970;28;20278;-64
2021/06/08 04:52:32;;;;;;;16.35;10.68;;;;;;;23.01;66.18;99871.41;5007474;28;20450;-64
2021/06/08 04:54:57;;;;;;;21.95;9.65;;;;;;;23.44;65.56;99865.47;5012520;28;20093;-64
2021/06/08 04:57:22;;;;;;;16.58;10.80;;;;;;;23.63;65.31;99863.41;5001898;28;20077;-64
2021/06/08 05:00:13;;;;;;;21.83;10.82;;;;;;;23.89;64.27;99860.03;5002329;28;20229;-64
2021/06/08 05:02:56;;;;;;;24.08;10.23;;;;;;;24.19;62.34;99865.97;5018520;28;20049;-64
2021/06/08 05:05:24;;;;;;;18.67;10.70;;;;;;;24.20;62.20;99864.88;5021652;28;20075;-64
2021/06/08 05:07:58;;;;;;;20.40;10.90;;;;;;;24.04;63.27;99854.91;5010207;28;20030;-64
2021/06/08 05:10:25;;;;;;;20.30;10.43;;;;;;;23.67;63.53;99867.25;5006583;28;20028;-64
2021/06/08 05:12:53;;;;;;;25.17;10.57;;;;;;;23.40;65.15;99865.13;5008787;28;20033;-64
2021/06/08 05:15:21;;;;;;;16.80;10.32;;;;;;;23.18;66.17;99870.41;5022307;28;20026;-64
2021/06/08 05:17:49;;;;;;;16.35;10.18;;;;;;;23.13;66.39;99864.91;5018131;28;20033;-64
2021/06/08 05:20:16;;;;;;;20.30;10.52;;;;;;;23.29;65.11;99865.19;5011281;28;20145;-64
2021/06/08 05:22:42;;;;;;;14.40;10.10;;;;;;;23.41;65.20;99863.25;5007114;28;20026;-64
2021/06/08 05:25:09;;;;;;;20.67;10.90;;;;;;;23.83;63.89;99869.16;4990035;28;20038;-64
2021/06/08 05:27:34;;;;;;;17.50;9.75;;;;;;;23.93;63.76;99869.34;5011284;28;20036;-64
2021/06/08 05:30:00;;;;;;;22.85;10.95;;;;;;;23.79;63.11;99860.72;5007403;28;20034;-64
2021/06/08 05:32:28;;;;;;;17.77;11.57;;;;;;;23.61;64.39;99860.13;5011173;28;20033;-64
2021/06/08 05:34:53;;;;;;;20.75;10.88;;;;;;;23.76;64.26;99855.78;5007484;28;20031;-64
2021/06/08 05:37:19;;;;;;;22.63;10.88;;;;;;;24.06;63.70;99860.06;5011227;28;20037;-64
2021/06/08 05:39:45;;;;;;;14.40;10.25;;;;;;;24.43;60.95;99861.19;5010632;28;20045;-64
2021/06/08 05:42:15;;;;;;;14.55;9.73;;;;;;;24.60;61.22;99861.13;5007111;28;20035;-64
2021/06/08 05:44:41;;;;;;;18.13;10.60;;;;;;;24.39;61.60;99862.75;5014677;28;20124;-64
2021/06/08 05:47:07;;;;;;;18.55;10.60;;;;;;;24.73;60.99;99865.38;5006991;28;20101;-65
2021/06/08 05:49:36;;;;;;;19.98;10.40;;;;;;;25.09;60.38;99863.94;5017319;28;20038;-64
2021/06/08 05:52:03;;;;;;;16.00;10.98;;;;;;;25.06;61.10;99864.47;5018934;28;20048;-64
2021/06/08 05:54:30;;;;;;;19.15;10.15;;;;;;;25.05;59.73;99868.25;5010743;28;20100;-64
2021/06/08 05:56:56;;;;;;;17.23;10.23;;;;;;;25.27;59.81;99866.31;5014197;28;20361;-64
2021/06/08 05:59:23;;;;;;;18.00;10.20;;;;;;;25.38;59.30;99867.25;5018840;28;20049;-64
2021/06/08 06:01:49;;;;;;;14.40;10.55;;;;;;;25.92;57.80;99878.88;5010596;28;20061;-64
2021/06/08 06:04:16;;;;;;;13.02;9.98;;;;;;;25.81;56.51;99873.63;5006067;28;20030;-64
2021/06/08 06:06:43;;;;;;;18.38;12.07;;;;;;;25.23;58.50;99881.44;5004956;28;20098;-64
2021/06/08 06:09:09;;;;;;;18.13;11.85;;;;;;;24.97;59.11;99882.16;5006818;28;20038;-64
2021/06/08 06:11:36;;;;;;;18.08;11.68;;;;;;;25.12;59.41;99869.69;5004784;28;20041;-64
2021/06/08 06:14:04;;;;;;;19.25;11.63;;;;;;;25.06;57.97;99869.88;5009279;28;20026;-64
2021/06/08 06:16:37;;;;;;;20.95;12.35;;;;;;;24.94;59.32;99867.25;5010638;28;20034;-64
2021/06/08 06:19:06;;;;;;;23.98;11.15;;;;;;;24.92;59.19;99868.56;5015586;28;20272;-64
2021/06/08 06:21:33;;;;;;;17.58;13.02;;;;;;;25.04;58.13;99875.56;5007895;28;20042;-64
2021/06/08 06:24:00;;;;;;;18.35;12.07;;;;;;;25.32;58.37;99871.78;5005042;28;20026;-64
2021/06/08 06:26:26;;;;;;;18.98;11.07;;;;;;;26.22;55.86;99875.59;5005589;28;20029;-64
2021/06/08 06:28:53;;;;;;;16.15;10.95;;;;;;;27.11;52.83;99874.75;5016884;28;20157;-64
2021/06/08 06:31:18;;;;;;;21.23;12.88;;;;;;;27.29;51.52;99863.38;5013804;28;20090;-65
2021/06/08 06:33:50;;;;;;;19.88;12.35;;;;;;;27.78;51.32;99871.06;5018247;28;20034;-65
2021/06/08 06:36:16;;;;;;;15.40;10.93;;;;;;;28.06;50.14;99857.97;5015015;28;20244;-64
2021/06/08 06:38:45;;;;;;;21.50;12.60;;;;;;;28.13;48.64;99858.53;5012546;28;20033;-64
2021/06/08 06:41:13;;;;;;;21.35;12.65;;;;;;;28.10;48.52;99853.66;5009372;28;20037;-64
2021/06/08 06:43:44;;;;;;;16.70;11.90;;;;;;;27.72;50.05;99857.72;5013583;28;20029;-64
2021/06/08 06:46:09;;;;;;;22.42;12.57;;;;;;;27.76;49.47;99845.22;5014024;28;20452;-64
2021/06/08 06:48:35;;;;;;;19.17;12.68;;;;;;;27.83;49.16;99851.19;5021190;28;20353;-64
2021/06/08 06:51:01;;;;;;;16.25;12.77;;;;;;;27.61;48.42;99846.03;5031471;28;20025;-64
2021/06/08 06:53:27;;;;;;;17.98;12.45;;;;;;;27.75;48.74;99851.75;5024874;28;20368;-65
2021/06/08 06:55:52;;;;;;;21.75;14.45;;;;;;;28.33;48.30;99844.09;5037025;28;20037;-64
2021/06/08 06:58:19;;;;;;;19.50;11.32;;;;;;;29.07;46.50;99849.53;5027935;28;20043;-65
2021/06/08 07:00:46;;;;;;;17.75;9.95;;;;;;;29.29;44.83;99838.25;5035351;28;20028;-65
2021/06/08 07:03:13;;;;;;;18.63;9.27;;;;;;;28.80;45.18;99844.47;5023195;28;20104;-65
2021/06/08 07:05:39;;;;;;;15.25;8.98;;;;;;;29.12;44.37;99844.06;5024843;28;20052;-65
2021/06/08 07:08:06;;;;;;;14.25;9.70;;;;;;;29.57;44.21;99839.44;5024374;28;20299;-64
2021/06/08 07:10:32;;;;;;;15.98;9.15;;;;;;;29.86;43.38;99829.38;5024189;28;20037;-65
2021/06/08 07:13:04;;;;;;;16.77;9.00;;;;;;;30.07;42.92;99837.38;5010851;28;20304;-65
2021/06/08 07:15:30;;;;;;;16.65;8.10;;;;;;;30.10;41.36;99834.91;5034068;28;20041;-65
2021/06/08 07:17:56;;;;;;;13.65;9.00;;;;;;;30.06;42.05;99828.38;5024073;28;20030;-64
2021/06/08 07:20:24;;;;;;;14.75;9.75;;;;;;;30.26;42.50;99827.38;5035948;28;20041;-64
2021/06/08 07:22:51;;;;;;;11.43;8.88;;;;;;;30.36;41.46;99829.19;5033371;28;20032;-64
2021/06/08 07:25:18;;;;;;;12.07;8.10;;;;;;;30.23;41.82;99827.97;5042762;28;20017;-64
2021/06/08 07:27:44;;;;;;;14.10;8.23;;;;;;;30.16;42.11;99819.28;5024428;28;20021;-64
2021/06/08 07:30:13;;;;;;;11.38;8.18;;;;;;;29.71;41.96;99813.13;5024141;28;20041;-64
2021/06/08 07:32:48;;;;;;;16.50;8.90;;;;;;;29.58;43.57;99815.69;5024267;28;20028;-64
2021/06/08 07:35:28;;;;;;;13.55;10.07;;;;;;;29.53;43.11;99822.84;5024118;28;20061;-65
2021/06/08 07:37:57;;;;;;;11.32;8.65;;;;;;;29.83;42.52;99819.03;5024237;28;20080;-65
2021/06/08 07:40:33;;;;;;;16.95;8.75;;;;;;;29.33;43.92;99820.22;5023943;28;20288;-64
2021/06/08 07:43:03;;;;;;;15.48;8.57;;;;;;;29.78;44.07;99824.53;5023952;28;20042;-65
2021/06/08 07:45:38;;;;;;;12.27;7.93;;;;;;;30.15;41.88;99814.91;5023963;28;20326;-65
2021/06/08 07:48:06;;;;;;;13.98;8.63;;;;;;;30.44;41.68;99814.88;5024016;28;20041;-64
2021/06/08 07:50:35;;;;;;;11.38;7.97;;;;;;;30.69;41.85;99813.78;5024176;28;20223;-65
2021/06/08 07:53:02;;;;;;;12.75;8.52;;;;;;;30.69;40.65;99814.59;5023894;28;20037;-64
2021/06/08 07:55:28;;;;;;;13.02;8.63;;;;;;;30.10;39.90;99806.78;5006278;28;20315;-64
2021/06/08 07:57:54;;;;;;;10.82;8.02;;;;;;;29.59;42.50;99807.22;5023780;28;20026;-64
2021/06/08 08:00:21;;;;;;;14.32;8.07;;;;;;;29.62;41.76;99806.66;5023739;28;20033;-64
2021/06/08 08:02:47;;;;;;;17.75;9.35;;;;;;;30.09;41.93;99805.16;5023666;28;20026;-65
2021/06/08 08:05:17;;;;;;;17.75;9.65;;;;;;;30.66;41.59;99803.44;5023493;28;20061;-65
2021/06/08 08:07:44;;;;;;;12.00;8.63;;;;;;;30.71;39.81;99806.13;5022291;28;20128;-65
2021/06/08 08:10:10;;;;;;;10.52;8.00;;;;;;;31.06;38.31;99807.53;5008485;28;20038;-65
2021/06/08 08:12:37;;;;;;;14.02;8.02;;;;;;;30.63;38.39;99801.31;5012371;28;20025;-65
2021/06/08 08:15:07;;;;;;;9.45;7.55;;;;;;;30.64;38.48;99792.81;5007280;28;20030;-65
2021/06/08 08:17:33;;;;;;;10.00;8.15;;;;;;;30.82;38.47;99802.13;5014352;28;20029;-65
2021/06/08 08:20:00;;;;;;;13.23;7.75;;;;;;;30.92;39.14;99803.91;5015565;28;20080;-65
2021/06/08 08:22:26;;;;;;;9.50;8.05;;;;;;;31.14;39.33;99804.13;5007536;28;20323;-65
2021/06/08 08:24:52;;;;;;;9.13;7.20;;;;;;;31.14;39.31;99795.94;5007802;28;20042;-65
2021/06/08 08:27:17;;;;;;;10.73;6.85;;;;;;;31.63;36.37;99800.94;5010726;28;20204;-65
2021/06/08 08:29:46;;;;;;;10.75;6.28;;;;;;;32.07;35.01;99791.41;5017943;28;20315;-65
2021/06/08 08:32:13;;;;;;;9.93;6.40;;;;;;;32.16;35.27;99780.56;5011274;28;20022;-65
2021/06/08 08:34:40;;;;;;;9.25;5.97;;;;;;;32.11;34.94;99792.44;5012743;28;20058;-65
2021/06/08 08:37:05;;;;;;;10.93;6.13;;;;;;;32.43;33.90;99780.63;5003845;28;20215;-65
2021/06/08 08:39:31;;;;;;;8.07;5.90;;;;;;;32.23;34.54;99781.78;5011816;28;20040;-64
2021/06/08 08:41:57;;;;;;;7.70;6.13;;;;;;;32.44;34.94;99775.94;5003582;28;20038;-65
2021/06/08 08:44:25;;;;;;;6.78;5.50;;;;;;;32.06;32.82;99774.16;5002373;28;20280;-64
2021/06/08 08:46:50;;;;;;;15.43;6.22;;;;;;;31.36;33.51;99768.81;5011486;28;20355;-64
2021/06/08 08:49:16;;;;;;;8.23;6.03;;;;;;;30.76;35.20;99765.84;5011278;28;20335;-64
2021/06/08 08:51:43;;;;;;;7.65;6.78;;;;;;;29.95;38.59;99768.69;5003875;28;20057;-64
2021/06/08 08:54:11;;;;;;;7.90;5.47;;;;;;;30.16;38.16;99762.75;5002280;28;20375;-64
2021/06/08 08:56:38;;;;;;;8.35;6.05;;;;;;;30.55;37.38;99769.94;5001634;28;20223;-64
2021/06/08 08:59:09;;;;;;;7.78;5.88;;;;;;;31.22;35.02;99764.41;4994106;28;20062;-64
2021/06/08 09:01:36;;;;;;;9.88;5.47;;;;;;;31.59;33.38;99750.66;5011814;28;20401;-65
2021/06/08 09:04:04;;;;;;;11.27;5.47;;;;;;;31.52;33.88;99749.41;5007492;28;20101;-64
2021/06/08 09:06:30;;;;;;;8.20;4.90;;;;;;;31.18;33.73;99750.50;5020725;28;20029;-64
2021/06/08 09:08:56;;;;;;;6.95;5.30;;;;;;;30.20;35.80;99752.06;5013064;28;20026;-64
2021/06/08 09:11:22;;;;;;;6.47;5.30;;;;;;;30.64;36.13;99754.53;5014987;28;20220;-64
2021/06/08 09:13:47;;;;;;;6.85;5.32;;;;;;;31.02;34.19;99746.34;5027330;28;20073;-64
2021/06/08 09:16:15;;;;;;;6.78;5.72;;;;;;;30.47;36.42;99752.28;5036516;28;20029;-64
2021/06/08 09:18:42;;;;;;;7.07;5.95;;;;;;;29.90;38.86;99755.09;5021989;28;20084;-64
2021/06/08 09:21:13;;;;;;;7.18;5.80;;;;;;;29.69;36.69;99749.03;5010503;28;20018;-64
2021/06/08 09:23:39;;;;;;;11.38;6.10;;;;;;;29.64;36.34;99749.88;5002462;28;20081;-64
2021/06/08 09:26:04;;;;;;;8.45;5.90;;;;;;;30.06;37.40;99743.75;5010442;28;20041;-64
2021/06/08 09:28:32;;;;;;;7.88;5.55;;;;;;;29.80;37.24;99743.16;5016602;28;20101;-64
2021/06/08 09:31:04;;;;;;;8.25;5.90;;;;;;;29.51;39.00;99739.63;5002542;28;20339;-64
2021/06/08 09:33:44;;;;;;;8.80;5.43;;;;;;;29.32;37.17;99725.06;5002424;28;20035;-64
2021/06/08 09:36:15;;;;;;;10.32;6.20;;;;;;;28.79;40.13;99731.09;5012449;28;20080;-64
2021/06/08 09:38:57;;;;;;;15.63;7.35;;;;;;;28.20;42.64;99723.75;5006100;28;20042;-64
2021/06/08 09:41:28;;;;;;;11.55;7.32;;;;;;;27.85;41.94;99735.53;5002208;28;20034;-64
2021/06/08 09:44:06;;;;;;;13.07;6.60;;;;;;;28.31;40.28;99727.28;5016087;28;20038;-64
2021/06/08 09:46:44;;;;;;;9.52;6.70;;;;;;;28.60;39.23;99725.50;4990099;28;20102;-64
2021/06/08 09:49:11;;;;;;;8.45;5.95;;;;;;;28.86;39.83;99712.56;5002612;28;20224;-64
2021/06/08 09:51:53;;;;;;;5.47;4.28;;;;;;;28.13;37.92;99719.72;5002548;28;20045;-64
2021/06/08 09:54:35;;;;;;;7.13;5.13;;;;;;;27.75;39.12;99718.44;4984926;28;20042;-64
2021/06/08 09:57:24;;;;;;;7.10;5.50;;;;;;;27.71;40.01;99729.03;5002781;28;20081;-64
2021/06/08 09:59:56;;;;;;;9.57;4.55;;;;;;;27.36;41.06;99721.72;5002138;28;20026;-64
2021/06/08 10:02:50;;;;;;;8.93;5.10;;;;;;;27.45;38.83;99717.34;5002364;28;20320;-64
2021/06/08 10:05:18;;;;;;;;;;;;;;;27.49;42.51;99710.28;4990889;28;20104;-64
2021/06/08 10:07:45;;;;;;;7.60;4.97;;;;;;;27.73;41.24;99702.38;5001328;28;20089;-64
2021/06/08 10:10:13;;;;;;;8.80;5.40;;;;;;;27.49;41.50;99702.13;5001818;28;20113;-64
2021/06/08 10:13:01;;;;;;;15.98;6.00;;;;;;;26.95;41.35;99701.81;5002308;28;20053;-64
2021/06/08 10:15:30;;;;;;;6.35;5.60;;;;;;;27.03;43.53;99701.31;4989858;28;20133;-64
2021/06/08 10:18:07;;;;;;;7.05;5.05;;;;;;;27.07;43.96;99705.13;5002203;28;20037;-64
2021/06/08 10:20:36;;;;;;;8.10;4.65;;;;;;;27.08;40.75;99695.09;5021504;28;20084;-64
2021/06/08 10:23:30;;;;;;;12.73;5.35;;;;;;;27.51;41.59;99694.50;5021905;28;20041;-64
2021/06/08 10:26:01;;;;;;;13.70;5.65;;;;;;;27.20;44.01;99696.44;5021872;28;20033;-64
2021/06/08 10:28:28;;;;;;;9.15;5.25;;;;;;;26.96;43.55;99698.00;5014202;28;20058;-64
2021/06/08 10:30:54;;;;;;;9.05;4.72;;;;;;;26.97;41.40;99689.63;5012318;28;20034;-64
2021/06/08 10:33:24;;;;;;;5.88;5.07;;;;;;;27.06;42.88;99694.53;5017275;28;20038;-64
2021/06/08 10:35:51;;;;;;;6.85;5.05;;;;;;;27.23;42.28;99684.22;5013394;28;20033;-64
2021/06/08 10:38:18;;;;;;;6.88;5.47;;;;;;;27.37;44.11;99693.44;5016065;28;20056;-64
2021/06/08 10:40:46;;;;;;;7.55;5.20;;;;;;;27.48;41.72;99691.53;5013313;28;20034;-64
2021/06/08 10:43:27;;;;;;;7.40;5.32;;;;;;;27.46;42.80;99690.97;5009977;28;20061;-64
2021/06/08 10:45:55;;;;;;;8.60;4.80;;;;;;;27.25;42.31;99695.63;5014004;28;20030;-64
2021/06/08 10:48:41;;;;;;;6.30;5.20;;;;;;;27.32;40.77;99688.81;5013522;28;20113;-64
2021/06/08 10:51:17;;;;;;;7.97;4.85;;;;;;;27.48;44.51;99689.63;5017200;28;20075;-64
2021/06/08 10:53:47;;;;;;;8.80;5.03;;;;;;;27.26;44.17;99689.09;5013145;28;20030;-64
2021/06/08 10:56:33;;;;;;;43.38;6.70;;;;;;;27.28;43.21;99709.47;5002815;28;21305;-64
2021/06/08 10:59:06;;;;;;;9.05;5.85;;;;;;;27.26;50.61;99717.09;5011325;28;20347;-64
2021/06/08 11:01:50;;;;;;;13.35;6.20;;;;;;;26.70;53.17;99713.44;5007422;28;20049;-64
2021/06/08 11:04:23;;;;;;;12.40;6.32;;;;;;;26.18;53.06;99711.63;5014014;28;20030;-64
2021/06/08 11:06:56;;;;;;;10.45;5.40;;;;;;;26.03;52.41;99711.56;5008827;28;20046;-64
2021/06/08 11:09:24;;;;;;;9.95;4.43;;;;;;;25.86;50.44;99716.34;5019627;28;20038;-64
2021/06/08 11:11:59;;;;;;;7.63;3.83;;;;;;;25.65;50.10;99709.94;5011104;28;20048;-64
2021/06/08 11:14:30;;;;;;;5.22;3.20;;;;;;;25.83;46.57;99716.84;5009400;28;20037;-64
2021/06/08 11:17:03;;;;;;;10.50;2.72;;;;;;;25.41;46.29;99729.28;5016709;28;20098;-64
2021/06/08 11:19:55;;;;;;;9.93;3.23;;;;;;;25.19;43.90;99720.44;5019316;28;20043;-64
2021/06/08 11:22:42;;;;;;;3.83;2.30;;;;;;;25.12;45.83;99707.13;5013098;28;20021;-64
2021/06/08 11:25:43;;;;;;;4.47;2.42;;;;;;;25.23;45.69;99708.00;5016236;28;20258;-64
2021/06/08 11:28:16;;;;;;;12.48;2.45;;;;;;;25.44;44.63;99701.66;5019222;28;20402;-64
2021/06/08 11:31:03;;;;;;;4.13;2.25;;;;;;;25.56;43.17;99708.78;5004803;28;20076;-64
2021/06/08 11:33:33;;;;;;;4.20;1.77;;;;;;;25.24;43.75;99717.78;5002458;28;20085;-64